Bookmark and Share
Track history (hours):
 

Jade

Last reported at 2014-Apr-22 07:24 UTC. Time now 2014-Apr-23 07:15 UTC.
Position N 35°50' E 015°10'.

Length 175 m; draft 9 m.

Type: Ship (hazmat cat C). MMSI: 256491000.

NotesDate/timePositionNaut miles runAvg speedWind from/ knotsBaromVisibWave heightAir tempDewpointWater temp
2014-Apr-22 07:24N 35°50' E 015°10'4 4.5
2014-Apr-22 06:27N 35°53' E 015°06'5 5.1
2014-Apr-22 05:27N 35°57' E 015°02'5 5.6
2014-Apr-22 04:33N 36°00' E 014°57'2 1.6
2014-Apr-22 03:29N 36°02' E 014°56'1 0.6
2014-Apr-22 02:32N 36°02' E 014°56'0 0.3
2014-Apr-22 01:29N 36°02' E 014°57'1 1.0
2014-Apr-22 00:33N 36°01' E 014°56'0 0.3
2014-Apr-21 23:33N 36°01' E 014°56'2 2.5
2014-Apr-21 22:33N 35°59' E 014°56'6 5.8
2014-Apr-21 21:32N 35°54' E 014°52'0 0.0
2014-Apr-21 19:29N 35°54' E 014°53'0 0.0
2014-Apr-21 18:26N 35°54' E 014°53'0 0.1
2014-Apr-21 17:32N 35°54' E 014°53'0 0.1
2014-Apr-21 16:32N 35°54' E 014°53'0 0.0
2014-Apr-21 15:32N 35°54' E 014°53'0 0.0
2014-Apr-21 14:32N 35°54' E 014°53'0 0.0
2014-Apr-21 13:32N 35°54' E 014°53'0 0.0
2014-Apr-21 12:32N 35°54' E 014°53'0 0.0
2014-Apr-21 11:32N 35°54' E 014°53'0 0.0
2014-Apr-21 10:14N 35°54' E 014°53'0 0.0
2014-Apr-21 09:32N 35°54' E 014°53'0 0.0
2014-Apr-21 08:23N 35°54' E 014°53'0 0.0
2014-Apr-21 07:29N 35°54' E 014°53'0 0.0
2014-Apr-20 23:29N 35°54' E 014°52'0 0.0
2014-Apr-20 22:32N 35°54' E 014°52'0 0.0
2014-Apr-20 21:32N 35°54' E 014°52'0 0.0
2014-Apr-20 20:32N 35°54' E 014°52'0 0.0
2014-Apr-20 19:32N 35°54' E 014°52'0 0.0
2014-Apr-20 18:32N 35°54' E 014°52'0 0.0
2014-Apr-20 17:32N 35°54' E 014°52'0 0.0
2014-Apr-20 16:32N 35°54' E 014°52'0 0.0
2014-Apr-20 15:32N 35°54' E 014°52'0 0.0
2014-Apr-20 13:32N 35°54' E 014°52'0 0.0
2014-Apr-20 12:32N 35°54' E 014°52'21 2.4
2014-Apr-20 03:33N 35°55' E 015°19'1413.7
2014-Apr-20 02:32N 35°56' E 015°36'44112.8
2014-Apr-18 16:07N 37°52' E 024°29'19112.7
2014-Apr-18 01:08N 40°28' E 026°50'710.5
2014-Apr-18 00:30N 40°31' E 026°58'117 3.3
2014-Apr-16 13:29N 41°25' E 029°15'  

Dump ship's entire track history

sailing weather and tide predictions

Jade — 9HVS8 — position and weather